createdAt,value
2022-09-13T00:02:12.677Z,10.76
2022-09-13T00:05:18.990Z,10.80
2022-09-13T00:08:25.668Z,10.75
2022-09-13T00:11:33.454Z,10.79
2022-09-13T00:14:39.818Z,10.58
2022-09-13T00:17:46.506Z,10.32
2022-09-13T00:20:52.964Z,9.74
2022-09-13T00:23:59.279Z,9.20
2022-09-13T00:27:08.724Z,9.43
2022-09-13T00:30:15.653Z,9.00
2022-09-13T00:33:21.746Z,8.75
2022-09-13T00:36:28.420Z,9.56
2022-09-13T00:39:34.866Z,9.69
2022-09-13T00:42:42.532Z,8.92
2022-09-13T00:45:50.004Z,9.10
2022-09-13T00:49:01.003Z,8.75
2022-09-13T00:52:10.327Z,9.53
2022-09-13T00:55:22.405Z,9.93
2022-09-13T00:58:35.102Z,9.69
2022-09-13T01:01:46.218Z,9.84
2022-09-13T01:04:52.803Z,9.83
2022-09-13T01:08:00.925Z,9.76
2022-09-13T01:11:13.552Z,8.88
2022-09-13T01:14:22.044Z,8.85
2022-09-13T01:17:29.735Z,8.83
2022-09-13T01:20:47.844Z,8.67
2022-09-13T01:24:24.322Z,8.71
2022-09-13T01:27:39.563Z,8.59
2022-09-13T01:30:55.655Z,7.46
2022-09-13T01:34:17.958Z,7.15
2022-09-13T01:37:44.843Z,7.24
2022-09-13T01:41:06.204Z,7.64
2022-09-13T01:44:28.571Z,7.48
2022-09-13T01:47:47.266Z,7.32
2022-09-13T01:51:02.569Z,7.87
2022-09-13T01:54:19.111Z,7.79
2022-09-13T01:57:33.047Z,8.04
2022-09-13T02:00:47.471Z,8.82
2022-09-13T02:03:59.755Z,8.83
2022-09-13T02:07:14.650Z,9.19
2022-09-13T02:10:25.538Z,9.00
2022-09-13T02:13:38.161Z,9.16
2022-09-13T02:16:51.119Z,9.26
2022-09-13T02:20:00.848Z,8.71
2022-09-13T02:23:11.657Z,9.39
2022-09-13T02:26:19.685Z,8.58
2022-09-13T02:29:29.036Z,8.60
2022-09-13T02:32:38.557Z,8.44
2022-09-13T02:35:52.403Z,8.69
2022-09-13T02:39:01.259Z,9.17
2022-09-13T02:42:15.647Z,9.24
2022-09-13T02:45:29.190Z,9.12
2022-09-13T02:48:44.668Z,9.10
2022-09-13T02:51:58.645Z,9.11
2022-09-13T02:55:17.417Z,9.22
2022-09-13T02:58:31.071Z,9.28
2022-09-13T03:01:39.810Z,8.86
2022-09-13T03:04:46.013Z,8.88
2022-09-13T03:07:54.323Z,8.42
2022-09-13T03:11:12.595Z,8.37
2022-09-13T03:14:28.943Z,7.24
2022-09-13T03:17:55.312Z,7.07
2022-09-13T03:21:09.306Z,7.67
2022-09-13T03:24:24.806Z,8.10
2022-09-13T03:27:36.757Z,8.55
2022-09-13T03:30:51.311Z,8.47
2022-09-13T03:34:00.906Z,8.51
2022-09-13T03:37:16.127Z,8.59
2022-09-13T03:40:35.916Z,8.73
2022-09-13T03:43:47.697Z,8.55
2022-09-13T03:46:58.882Z,8.69
2022-09-13T03:50:08.534Z,8.57
2022-09-13T03:53:20.706Z,8.11
2022-09-13T03:56:28.439Z,8.05
2022-09-13T03:59:35.475Z,7.16
2022-09-13T04:02:41.907Z,6.94
2022-09-13T04:05:48.611Z,6.43
2022-09-13T04:08:54.916Z,6.53
2022-09-13T04:12:02.809Z,6.73
2022-09-13T04:15:10.209Z,6.66
2022-09-13T04:18:16.174Z,6.55
2022-09-13T04:21:26.839Z,6.53
2022-09-13T04:24:33.618Z,7.54
2022-09-13T04:27:41.212Z,7.79
2022-09-13T04:30:47.632Z,8.72
2022-09-13T04:33:54.975Z,8.78
2022-09-13T04:37:01.332Z,9.08
2022-09-13T04:40:09.133Z,9.13
2022-09-13T04:43:16.449Z,8.80
2022-09-13T04:46:22.856Z,8.76
2022-09-13T04:49:28.767Z,9.30
2022-09-13T04:52:35.194Z,9.72
2022-09-13T04:55:41.483Z,9.34
2022-09-13T04:58:49.336Z,10.44
2022-09-13T05:01:56.178Z,9.77
2022-09-13T05:05:02.398Z,10.36
2022-09-13T05:08:08.672Z,10.09
2022-09-13T05:11:15.129Z,10.20
2022-09-13T05:14:22.618Z,10.85
2022-09-13T05:17:31.516Z,11.13
2022-09-13T05:20:37.602Z,10.74
2022-09-13T05:23:43.983Z,10.02
2022-09-13T05:26:50.577Z,10.58
2022-09-13T05:29:58.164Z,10.87
2022-09-13T05:33:04.343Z,10.99
2022-09-13T05:36:10.960Z,11.33
2022-09-13T05:39:31.988Z,11.53
2022-09-13T05:42:44.945Z,11.94
2022-09-13T05:45:53.387Z,11.99
2022-09-13T05:49:00.488Z,11.65
2022-09-13T05:52:06.987Z,11.95
2022-09-13T05:55:13.347Z,11.93
2022-09-13T05:58:19.865Z,11.58
2022-09-13T06:01:29.421Z,12.48
2022-09-13T06:04:37.094Z,12.84
2022-09-13T06:07:44.288Z,12.92
2022-09-13T06:10:56.331Z,13.14
2022-09-13T06:14:02.568Z,12.60
2022-09-13T06:17:10.133Z,13.10
2022-09-13T06:20:16.371Z,13.16
2022-09-13T06:23:22.758Z,13.75
2022-09-13T06:26:30.027Z,13.77
2022-09-13T06:29:36.203Z,13.85
2022-09-13T06:32:43.727Z,13.29
2022-09-13T06:35:49.867Z,13.59
2022-09-13T06:38:57.100Z,13.46
2022-09-13T06:42:03.423Z,14.01
2022-09-13T06:45:10.792Z,14.05
2022-09-13T06:48:20.908Z,13.87
2022-09-13T06:51:27.846Z,14.48
2022-09-13T06:54:34.167Z,14.05
2022-09-13T06:57:40.427Z,14.77
2022-09-13T07:00:46.867Z,14.83
2022-09-13T07:03:56.323Z,14.98
2022-09-13T07:07:02.715Z,15.53
2022-09-13T07:10:10.140Z,15.37
2022-09-13T07:13:16.219Z,15.98
2022-09-13T07:16:24.619Z,16.33
2022-09-13T07:19:31.907Z,16.37
2022-09-13T07:22:38.139Z,16.12
2022-09-13T07:25:44.286Z,15.75
2022-09-13T07:28:54.790Z,15.94
2022-09-13T07:32:00.917Z,16.05
2022-09-13T07:35:08.963Z,15.88
2022-09-13T07:38:14.883Z,16.81
2022-09-13T07:41:22.817Z,16.11
2022-09-13T07:44:28.915Z,16.50
2022-09-13T07:47:35.176Z,17.02
2022-09-13T07:50:43.507Z,17.15
2022-09-13T07:53:56.493Z,17.53
2022-09-13T07:57:03.736Z,17.26
2022-09-13T08:00:11.566Z,17.91
2022-09-13T08:03:18.058Z,17.89
2022-09-13T08:06:27.883Z,17.47
2022-09-13T08:09:34.154Z,17.90
2022-09-13T08:12:40.525Z,18.16
2022-09-13T08:15:46.954Z,18.37
2022-09-13T08:18:54.824Z,18.19
2022-09-13T08:22:02.511Z,18.18
2022-09-13T08:25:09.319Z,18.23
2022-09-13T08:28:17.929Z,18.47
2022-09-13T08:31:24.176Z,18.54
2022-09-13T08:34:30.366Z,18.58
2022-09-13T08:37:38.017Z,18.83
2022-09-13T08:40:50.584Z,18.43
2022-09-13T08:44:01.172Z,18.71
2022-09-13T08:47:28.578Z,19.13
2022-09-13T08:50:37.451Z,18.95
2022-09-13T08:53:50.372Z,19.64
2022-09-13T08:57:04.446Z,19.20
2022-09-13T09:00:20.985Z,19.13
2022-09-13T09:03:36.286Z,19.16
2022-09-13T09:06:43.855Z,19.27
2022-09-13T09:09:56.942Z,19.05
2022-09-13T09:13:07.608Z,19.51
2022-09-13T09:16:26.785Z,19.76
2022-09-13T09:19:37.860Z,19.36
2022-09-13T09:22:47.407Z,19.30
2022-09-13T09:25:59.281Z,19.41
2022-09-13T09:29:24.688Z,19.82
2022-09-13T09:32:49.243Z,19.52
2022-09-13T09:36:02.523Z,19.31
2022-09-13T09:39:13.018Z,19.92
2022-09-13T09:42:23.133Z,20.05
2022-09-13T09:45:32.119Z,20.09
2022-09-13T09:48:44.512Z,20.05
2022-09-13T09:51:50.824Z,19.94
2022-09-13T09:55:03.891Z,19.97
2022-09-13T09:58:12.985Z,20.53
2022-09-13T10:01:24.522Z,20.39
2022-09-13T10:04:31.127Z,20.03
2022-09-13T10:07:37.393Z,20.65
2022-09-13T10:10:45.847Z,20.56
2022-09-13T10:14:02.398Z,20.77
2022-09-13T10:17:18.019Z,21.35
2022-09-13T10:20:27.497Z,20.15
2022-09-13T10:23:34.602Z,22.12
2022-09-13T10:26:41.001Z,21.38
2022-09-13T10:29:52.625Z,21.27
2022-09-13T10:32:59.633Z,20.83
2022-09-13T10:36:09.592Z,21.53
2022-09-13T10:39:20.486Z,22.02
2022-09-13T10:42:30.062Z,21.37
2022-09-13T10:45:38.857Z,21.21
2022-09-13T10:48:48.079Z,21.20
2022-09-13T10:51:54.735Z,21.38
2022-09-13T10:55:26.927Z,21.20
2022-09-13T10:58:33.784Z,22.52
2022-09-13T11:01:49.214Z,22.63
2022-09-13T11:05:10.835Z,21.61
2022-09-13T11:08:34.627Z,22.19
2022-09-13T11:11:49.401Z,22.13
2022-09-13T11:15:05.800Z,21.57
2022-09-13T11:18:52.073Z,21.89
2022-09-13T11:22:17.774Z,21.99
2022-09-13T11:25:34.208Z,21.41
2022-09-13T11:28:54.082Z,21.78
2022-09-13T11:32:09.749Z,21.50
2022-09-13T11:35:48.389Z,22.27
2022-09-13T11:39:10.850Z,22.19
2022-09-13T11:42:31.192Z,22.52
2022-09-13T11:45:46.460Z,22.20
2022-09-13T11:49:12.924Z,22.16
2022-09-13T11:52:30.587Z,22.53
2022-09-13T11:55:42.739Z,22.29
2022-09-13T11:58:54.378Z,21.50
2022-09-13T12:02:05.542Z,22.57
2022-09-13T12:05:22.486Z,22.62
2022-09-13T12:08:33.623Z,21.71
2022-09-13T12:11:45.059Z,22.79
2022-09-13T12:15:01.116Z,22.35
2022-09-13T12:18:14.712Z,22.04
2022-09-13T12:21:24.245Z,22.07
2022-09-13T12:24:39.431Z,22.34
2022-09-13T12:27:54.294Z,22.26
2022-09-13T12:31:06.088Z,22.49
2022-09-13T12:34:21.503Z,22.18
2022-09-13T12:38:03.452Z,21.70
2022-09-13T12:41:30.733Z,21.79
2022-09-13T12:44:50.680Z,22.39
2022-09-13T12:48:16.871Z,21.94
2022-09-13T12:51:37.970Z,22.00
2022-09-13T12:55:19.735Z,22.39
2022-09-13T12:59:04.524Z,22.45
2022-09-13T13:02:28.650Z,21.92
2022-09-13T13:05:36.748Z,21.73
2022-09-13T13:08:52.635Z,22.09
2022-09-13T13:11:59.829Z,22.63
2022-09-13T13:15:49.918Z,22.01
2022-09-13T13:18:58.367Z,21.85
2022-09-13T13:22:37.843Z,21.63
2022-09-13T13:26:13.537Z,22.31
2022-09-13T13:29:23.349Z,22.52
2022-09-13T13:32:30.818Z,22.97
2022-09-13T13:35:36.949Z,22.06
2022-09-13T13:38:48.936Z,22.51
2022-09-13T13:41:56.841Z,22.68
2022-09-13T13:45:18.025Z,23.10
2022-09-13T13:48:39.107Z,22.04
2022-09-13T13:51:45.085Z,21.79
2022-09-13T13:55:04.510Z,22.08
2022-09-13T13:58:29.487Z,22.06
2022-09-13T14:01:40.796Z,21.92
2022-09-13T14:05:06.984Z,22.13
2022-09-13T14:08:32.966Z,21.52
2022-09-13T14:11:51.221Z,22.01
2022-09-13T14:15:08.450Z,22.59
2022-09-13T14:18:40.551Z,22.45
2022-09-13T14:22:07.644Z,21.68
2022-09-13T14:25:25.110Z,21.00
2022-09-13T14:28:33.374Z,22.07
2022-09-13T14:31:39.664Z,22.03
2022-09-13T14:34:54.495Z,22.16
2022-09-13T14:38:19.708Z,23.54
2022-09-13T14:41:32.737Z,23.90
2022-09-13T14:44:39.387Z,24.65
2022-09-13T14:47:53.697Z,24.11
2022-09-13T14:51:03.906Z,21.43
2022-09-13T14:54:18.297Z,20.90
2022-09-13T14:57:30.410Z,20.21
2022-09-13T15:00:46.919Z,20.44
2022-09-13T15:03:53.497Z,20.38
2022-09-13T15:07:10.883Z,19.82
2022-09-13T15:10:26.829Z,19.77
2022-09-13T15:13:35.298Z,19.83
2022-09-13T15:16:49.256Z,19.51
2022-09-13T15:20:05.300Z,19.86
2022-09-13T15:23:16.810Z,19.63
2022-09-13T15:26:26.729Z,19.69
2022-09-13T15:29:35.088Z,19.54
2022-09-13T15:32:43.200Z,19.46
2022-09-13T15:35:50.052Z,19.26
2022-09-13T15:39:05.804Z,19.55
2022-09-13T15:42:13.923Z,19.51
2022-09-13T15:45:22.079Z,19.49
2022-09-13T15:48:30.663Z,19.08
2022-09-13T15:51:38.951Z,19.04
2022-09-13T15:54:49.339Z,18.94
2022-09-13T15:57:56.988Z,18.72
2022-09-13T16:01:04.159Z,18.76
2022-09-13T16:04:10.132Z,18.59
2022-09-13T16:07:17.500Z,18.46
2022-09-13T16:10:24.443Z,18.36
2022-09-13T16:13:31.814Z,18.37
2022-09-13T16:16:37.744Z,18.09
2022-09-13T16:19:44.056Z,18.02
2022-09-13T16:22:50.730Z,17.93
2022-09-13T16:26:01.593Z,17.85
2022-09-13T16:29:09.837Z,17.73
2022-09-13T16:32:16.123Z,17.74
2022-09-13T16:35:22.478Z,17.76
2022-09-13T16:38:28.935Z,17.76
2022-09-13T16:41:35.366Z,17.60
2022-09-13T16:44:43.542Z,17.58
2022-09-13T16:47:49.907Z,17.50
2022-09-13T16:50:56.100Z,17.52
2022-09-13T16:54:02.918Z,17.40
2022-09-13T16:57:10.580Z,17.35
2022-09-13T17:00:20.163Z,17.27
2022-09-13T17:03:26.840Z,17.25
2022-09-13T17:06:32.857Z,17.25
2022-09-13T17:09:40.720Z,17.21
2022-09-13T17:12:46.738Z,17.20
2022-09-13T17:15:56.690Z,17.26
2022-09-13T17:19:06.282Z,17.16
2022-09-13T17:22:13.099Z,17.05
2022-09-13T17:25:20.947Z,16.97
2022-09-13T17:28:27.819Z,16.82
2022-09-13T17:31:35.804Z,16.77
2022-09-13T17:34:42.446Z,16.49
2022-09-13T17:37:48.804Z,16.52
2022-09-13T17:41:02.396Z,16.48
2022-09-13T17:44:09.218Z,16.52
2022-09-13T17:47:17.124Z,16.48
2022-09-13T17:50:23.643Z,16.48
2022-09-13T17:53:29.708Z,16.42
2022-09-13T17:56:37.424Z,16.27
2022-09-13T17:59:43.808Z,16.27
2022-09-13T18:02:51.250Z,16.06
2022-09-13T18:05:58.224Z,15.86
2022-09-13T18:09:04.783Z,15.66
2022-09-13T18:12:11.871Z,15.29
2022-09-13T18:15:18.469Z,15.27
2022-09-13T18:18:26.397Z,15.18
2022-09-13T18:21:32.512Z,15.22
2022-09-13T18:24:39.018Z,15.23
2022-09-13T18:27:45.772Z,15.12
2022-09-13T18:30:56.318Z,15.02
2022-09-13T18:34:06.491Z,15.02
2022-09-13T18:37:12.948Z,15.02
2022-09-13T18:40:19.431Z,15.12
2022-09-13T18:43:25.775Z,14.89
2022-09-13T18:46:33.125Z,14.91
2022-09-13T18:49:40.600Z,14.82
2022-09-13T18:52:46.760Z,14.67
2022-09-13T18:55:53.231Z,14.83
2022-09-13T18:59:01.736Z,14.47
2022-09-13T19:02:07.987Z,14.28
2022-09-13T19:05:15.742Z,14.23
2022-09-13T19:08:22.270Z,13.93
2022-09-13T19:11:46.496Z,13.92
2022-09-13T19:14:53.959Z,13.87
2022-09-13T19:18:00.390Z,13.73
2022-09-13T19:21:09.838Z,13.55
2022-09-13T19:24:19.414Z,13.41
2022-09-13T19:27:26.812Z,13.49
2022-09-13T19:30:35.280Z,13.06
2022-09-13T19:33:42.294Z,12.94
2022-09-13T19:36:52.622Z,13.08
2022-09-13T19:39:59.293Z,12.91
2022-09-13T19:43:05.916Z,12.96
2022-09-13T19:46:13.825Z,13.05
2022-09-13T19:49:20.029Z,12.71
2022-09-13T19:52:27.719Z,12.75
2022-09-13T19:55:33.843Z,12.62
2022-09-13T19:58:40.368Z,12.67
2022-09-13T20:01:47.982Z,12.65
2022-09-13T20:04:54.275Z,12.34
2022-09-13T20:08:02.306Z,12.37
2022-09-13T20:11:10.125Z,12.39
2022-09-13T20:14:19.352Z,12.26
2022-09-13T20:17:26.403Z,11.94
2022-09-13T20:20:35.527Z,12.18
2022-09-13T20:23:44.181Z,12.05
2022-09-13T20:26:52.531Z,12.14
2022-09-13T20:29:58.847Z,11.92
2022-09-13T20:33:05.510Z,11.36
2022-09-13T20:36:15.113Z,11.58
2022-09-13T20:39:22.662Z,11.66
2022-09-13T20:42:29.264Z,11.95
2022-09-13T20:45:35.687Z,11.90
2022-09-13T20:48:44.606Z,11.56
2022-09-13T20:51:51.071Z,11.67
2022-09-13T20:54:59.357Z,11.68
2022-09-13T20:58:06.127Z,11.54
2022-09-13T21:01:15.140Z,11.61
2022-09-13T21:04:22.675Z,11.38
2022-09-13T21:07:46.146Z,11.49
2022-09-13T21:11:03.530Z,11.24
2022-09-13T21:14:10.383Z,11.10
2022-09-13T21:17:16.790Z,11.29
2022-09-13T21:20:23.251Z,10.75
2022-09-13T21:23:31.975Z,11.01
2022-09-13T21:26:42.394Z,10.30
2022-09-13T21:29:48.805Z,10.76
2022-09-13T21:32:54.895Z,10.70
2022-09-13T21:36:03.311Z,9.92
2022-09-13T21:39:09.586Z,9.94
2022-09-13T21:42:17.399Z,9.51
2022-09-13T21:45:24.050Z,10.40
2022-09-13T21:48:32.892Z,9.49
2022-09-13T21:51:40.354Z,9.80
2022-09-13T21:54:46.593Z,9.46
2022-09-13T21:57:54.408Z,9.40
2022-09-13T22:01:06.348Z,9.31
2022-09-13T22:04:16.810Z,9.69
2022-09-13T22:07:23.051Z,9.98
2022-09-13T22:10:29.649Z,9.88
2022-09-13T22:13:45.471Z,10.24
2022-09-13T22:16:53.320Z,10.31
2022-09-13T22:19:59.767Z,10.14
2022-09-13T22:23:06.407Z,9.96
2022-09-13T22:26:13.859Z,10.16
2022-09-13T22:29:22.441Z,10.27
2022-09-13T22:32:30.708Z,10.21
2022-09-13T22:35:36.920Z,10.26
2022-09-13T22:38:44.540Z,10.31
2022-09-13T22:41:50.849Z,9.89
2022-09-13T22:44:58.397Z,9.81
2022-09-13T22:48:04.271Z,8.83
2022-09-13T22:51:12.639Z,9.69
2022-09-13T22:54:20.144Z,9.06
2022-09-13T22:57:26.479Z,8.37
2022-09-13T23:00:34.340Z,8.01
2022-09-13T23:03:41.845Z,8.32
2022-09-13T23:06:48.826Z,8.18
2022-09-13T23:09:55.023Z,8.02
2022-09-13T23:13:01.723Z,8.89
2022-09-13T23:16:14.573Z,8.11
2022-09-13T23:19:22.609Z,7.67
2022-09-13T23:22:28.896Z,8.08
2022-09-13T23:25:35.795Z,8.50
2022-09-13T23:28:42.187Z,8.60
2022-09-13T23:31:50.768Z,8.03
2022-09-13T23:34:56.935Z,9.15
2022-09-13T23:38:03.453Z,8.09
2022-09-13T23:41:10.886Z,8.05
2022-09-13T23:44:17.422Z,8.09
2022-09-13T23:47:25.176Z,8.20
2022-09-13T23:50:32.066Z,8.44
2022-09-13T23:53:38.582Z,7.81
2022-09-13T23:56:45.227Z,8.11
2022-09-13T23:59:51.471Z,7.49
